EDT,Max TemperatureF,Mean TemperatureF,Min TemperatureF,Max Dew PointF,MeanDew PointF,Min DewpointF,Max Humidity, Mean Humidity, Min Humidity, Max Sea Level PressureIn, Mean Sea Level PressureIn, Min Sea Level PressureIn, Max VisibilityMiles, Mean VisibilityMiles, Min VisibilityMiles, Max Wind SpeedMPH, Mean Wind SpeedMPH, Max Gust SpeedMPH,PrecipitationIn, CloudCover, Events, WindDirDegrees
2013-8-1,69,62,54,57,55,54,100,81,61,29.88,29.85,29.83,10,8,0,16,7,22,T,3,Fog-Rain,280
2013-8-2,70,62,53,58,54,51,93,76,59,29.89,29.82,29.79,10,5,0,18,6,27,0.83,5,Fog-Rain-Thunderstorm,26
2013-8-3,64,59,54,54,52,50,93,79,65,30.06,29.98,29.88,10,10,10,20,10,26,0.00,6,,297
2013-8-4,69,59,49,52,49,47,83,66,49,30.17,30.13,30.06,10,10,10,16,8,24,0.00,0,,311
2013-8-5,72,61,49,56,50,46,93,67,41,30.10,30.02,29.89,10,8,1,15,6,20,T,5,Rain,145
2013-8-6,74,67,60,63,60,55,93,81,68,29.89,29.84,29.78,10,10,6,14,6,21,0.02,7,Rain,133
2013-8-7,68,62,56,63,60,51,93,85,76,29.93,29.77,29.68,10,7,1,17,7,24,1.11,7,Rain,327
2013-8-8,72,61,50,55,50,45,89,67,44,30.02,29.99,29.95,10,10,10,13,4,19,0.00,2,,292
2013-8-9,69,61,52,60,54,46,93,71,49,30.02,29.91,29.83,10,10,3,26,8,40,0.06,5,Rain-Thunderstorm,278
2013-8-10,70,59,47,53,50,45,93,73,53,30.11,30.08,30.02,10,10,10,16,7,22,0.00,1,,295
2013-8-11,74,62,49,57,52,48,93,70,47,30.08,30.04,29.99,10,10,7,13,4,16,T,1,Rain,278
2013-8-12,72,63,54,62,56,45,97,79,61,30.00,29.91,29.86,10,9,2,22,6,29,0.12,6,Rain-Thunderstorm,273
2013-8-13,60,55,49,50,45,42,83,67,51,30.09,30.01,29.93,10,10,10,17,10,25,T,5,,327
2013-8-14,67,59,51,52,48,44,93,69,45,30.13,30.09,30.07,10,10,10,18,9,25,0.00,1,,299
2013-8-15,72,61,50,51,49,45,89,69,48,30.09,30.05,30.01,10,10,10,12,6,,0.00,1,,272
2013-8-16,79,64,48,55,52,47,93,65,36,30.18,30.14,30.08,10,10,8,9,3,11,0.00,0,,267
2013-8-17,81,68,55,61,55,52,93,66,39,30.24,30.19,30.15,10,10,8,18,6,21,0.00,0,,153
2013-8-18,80,68,56,62,57,53,93,73,52,30.17,30.12,30.05,10,10,9,13,5,17,0.00,0,,221
2013-8-19,80,69,57,62,58,55,93,73,52,30.06,30.00,29.94,10,7,1,21,7,25,0.00,1,,211
2013-8-20,83,74,64,68,63,60,93,72,51,29.99,29.97,29.93,10,10,7,17,7,25,0.00,1,,216
2013-8-21,84,75,65,69,65,62,87,73,58,29.98,29.91,29.85,10,8,4,21,8,28,T,3,,216
2013-8-22,78,69,59,64,56,46,97,65,33,30.11,30.01,29.90,10,9,6,15,7,20,0.00,0,,302
2013-8-23,76,64,52,55,52,49,93,66,38,30.22,30.18,30.12,10,10,10,9,3,11,0.00,0,,238
2013-8-24,79,67,54,62,56,52,93,68,43,30.28,30.23,30.19,10,10,7,12,6,16,0.00,0,,123
2013-8-25,77,69,60,70,64,58,97,79,61,30.18,30.03,29.94,10,8,0,26,5,40,1.02,5,Fog-Rain-Thunderstorm,139
2013-8-26,82,74,66,70,67,64,93,78,62,29.99,29.94,29.86,10,6,0,29,7,42,1.26,5,Fog-Rain-Thunderstorm,279
2013-8-27,84,74,64,70,67,63,100,83,65,29.94,29.89,29.83,10,6,0,9,3,11,0.00,4,Fog,270
2013-8-28,83,74,64,70,65,63,100,79,58,30.03,29.95,29.86,10,6,0,14,5,17,0.00,2,Fog,283
2013-8-29,86,75,63,69,64,61,100,76,51,30.07,30.02,29.91,10,7,0,9,3,12,0.00,1,Fog,259
2013-8-30,76,72,67,68,65,60,90,79,68,29.91,29.79,29.73,10,7,2,15,6,23,0.62,7,Rain-Thunderstorm,250
2013-8-31,76,68,59,63,59,55,93,77,60,29.90,29.87,29.81,10,10,7,10,4,14,0.00,3,,55